Latest Weather Observations for Temora

IDN60801

Issued at 12:03 pm EST Tuesday 28 April 2015 (issued every 30 minutes, with the page automatically refreshed every 10 minutes)

About weather observations | Map of weather stations | Latest weather observations for NSW | Other Formats
Station Details ID: 073151 Name: TEMORA AIRPORT Lat: -34.43 Lon: 147.51 Height: 280.5 m
Data from the previous 72 hours. | See also: Recent months at Temora
Date/Time
EST
Temp
°C
App
Temp
°C
Dew
Point
Rel
Hum
%
Delta-T
°C
Wind Press
QNH
hPa
Press
MSL
hPa
Rain
since 9 am
mm
Dir
 
Spd
km/h
Gust
km/h
Spd
kts
Gust
kts
28/12:00pm 16.5 13.6 6.6 52 4.9 ENE 11 19 6 10 1026.4 1025.9 0.0
28/11:30am 15.5 12.9 6.2 54 4.5 ENE 9 17 5 9 1026.8 1026.4 0.0
28/11:00am 14.9 12.0 6.5 57 4.1 E 11 15 6 8 1027.0 1026.6 0.0
28/10:30am 13.9 11.5 7.0 63 3.4 ENE 9 15 5 8 1027.1 1026.7 0.0
28/10:00am 12.5 9.6 6.3 66 3.0 ENE 11 15 6 8 1027.2 1026.8 0.0
28/09:30am 11.7 9.0 7.2 74 2.2 E 11 15 6 8 1027.1 1026.7 0.0
28/09:00am 10.4 7.5 6.5 77 1.8 E 11 15 6 8 1027.0 1026.6 0.0
28/08:30am 8.7 7.9 6.7 87 0.9 CALM 0 0 0 0 1026.9 1026.5 0.0
28/08:00am 6.0 5.0 5.7 98 0.1 CALM 0 0 0 0 1026.6 1026.2 0.0
28/07:30am 3.5 2.0 3.2 98 0.1 CALM 0 0 0 0 1026.3 1025.8 0.0
28/07:00am 2.4 0.7 2.0 97 0.2 CALM 0 0 0 0 1026.2 1025.7 0.0
28/06:30am 2.6 1.0 2.2 97 0.2 CALM 0 0 0 0 1025.6 1025.2 0.0
28/06:00am 2.5 0.8 2.1 97 0.2 CALM 0 0 0 0 1025.2 1024.8 0.0
28/05:30am 2.7 1.1 2.3 97 0.2 CALM 0 0 0 0 1024.9 1024.5 0.0
28/05:00am 2.6 0.9 2.0 96 0.2 CALM 0 0 0 0 1024.5 1024.1 0.0
28/04:30am 2.9 1.3 2.3 96 0.2 CALM 0 0 0 0 1024.4 1024.0 0.0
28/04:00am 2.6 0.9 2.0 96 0.2 CALM 0 0 0 0 1024.2 1023.8 0.0
28/03:30am 3.3 1.0 2.7 96 0.2 SSW 4 6 2 3 1024.0 1023.6 0.0
28/03:00am 3.4 1.9 2.8 96 0.2 CALM 0 0 0 0 1023.9 1023.5 0.0
28/02:30am 3.3 1.7 2.4 94 0.4 CALM 0 0 0 0 1024.1 1023.7 0.0
28/02:00am 3.6 2.0 2.4 92 0.5 CALM 0 2 0 1 1024.1 1023.7 0.0
28/01:30am 4.9 3.2 3.9 93 0.4 SSW 2 7 1 4 1024.2 1023.8 0.0
28/01:00am 5.0 2.5 4.0 93 0.4 SSW 6 7 3 4 1024.1 1023.7 0.0
28/12:30am 5.5 4.2 4.3 92 0.5 CALM 0 0 0 0 1024.1 1023.7 0.0
28/12:00am 5.5 4.2 4.2 91 0.6 CALM 0 0 0 0 1024.3 1023.9 0.0
 
Date/Time
EST
Temp
°C
App
Temp
°C
Dew
Point
Rel
Hum
%
Delta-T
°C
Wind Press
QNH
hPa
Press
MSL
hPa
Rain
since 9 am
mm
Dir
 
Spd
km/h
Gust
km/h
Spd
kts
Gust
kts
27/11:30pm 6.0 3.5 4.8 92 0.5 SSW 7 7 4 4 1024.3 1023.9 0.0
27/11:00pm 6.4 4.0 4.4 87 0.9 SSW 6 7 3 4 1024.4 1024.0 0.0
27/10:30pm 7.3 5.1 5.1 86 1.0 SSW 6 7 3 4 1024.5 1024.1 0.0
27/10:00pm 8.1 5.8 4.9 80 1.4 SSW 6 7 3 4 1024.5 1024.1 0.0
27/09:30pm 9.6 7.2 5.2 74 2.0 SSW 7 9 4 5 1024.3 1023.9 0.0
27/09:00pm 10.7 7.6 5.5 70 2.4 SSW 11 15 6 8 1024.1 1023.7 0.0
27/08:30pm 10.9 8.2 5.7 70 2.4 SSW 9 15 5 8 1023.9 1023.5 0.0
27/08:00pm 11.0 8.2 5.1 67 2.7 SW 9 15 5 8 1023.8 1023.4 0.0
27/07:30pm 11.3 8.8 5.0 65 2.9 WSW 7 9 4 5 1023.4 1023.0 0.0
27/07:00pm 11.5 9.1 5.2 65 2.9 WSW 7 9 4 5 1023.1 1022.6 0.0
27/06:30pm 12.4 10.1 4.9 60 3.5 SW 6 9 3 5 1022.7 1022.2 0.0
27/06:00pm 12.6 10.1 4.8 59 3.6 WSW 7 9 4 5 1022.4 1021.9 0.0
27/05:30pm 13.4 10.5 4.8 56 4.0 SW 9 13 5 7 1022.1 1021.7 0.0
27/05:00pm 14.4 10.4 4.7 52 4.6 WSW 15 20 8 11 1021.8 1021.4 0.0
27/04:30pm 15.4 11.8 4.8 49 5.1 SW 13 24 7 13 1021.6 1021.2 0.0
27/04:00pm 15.1 10.1 4.5 49 5.0 WSW 20 28 11 15 1021.4 1021.0 0.0
27/03:30pm 16.4 13.1 6.2 51 5.0 SW 13 19 7 10 1021.4 1021.0 0.0
27/03:00pm 16.7 12.4 5.3 47 5.5 WSW 17 26 9 14 1021.3 1020.9 0.0
27/02:30pm 16.7 12.0 5.0 46 5.7 WSW 19 26 10 14 1021.2 1020.8 0.0
27/02:00pm 15.9 11.3 6.3 53 4.7 SW 20 28 11 15 1021.3 1020.9 0.0
27/01:30pm 15.7 11.4 5.3 50 5.0 SW 17 20 9 11 1021.2 1020.8 0.0
27/01:00pm 15.3 10.5 4.7 49 5.0 SW 19 30 10 16 1021.4 1021.0 0.0
27/12:30pm 15.9 12.4 7.4 57 4.3 SW 15 22 8 12 1021.7 1021.3 0.0
27/12:00pm 14.6 10.7 6.9 60 3.8 SSW 17 24 9 13 1022.1 1021.7 0.0
27/11:30am 13.7 9.4 7.2 65 3.2 SSW 19 26 10 14 1022.5 1022.0 0.0
27/11:00am 12.9 8.7 7.4 69 2.7 SSW 19 30 10 16 1022.7 1022.2 0.0
27/10:30am 11.9 7.5 7.2 73 2.3 SW 20 28 11 15 1023.1 1022.6 0.0
27/10:00am 11.4 6.5 7.1 75 2.1 SSW 22 30 12 16 1023.0 1022.5 0.0
27/09:30am 10.7 5.6 7.6 81 1.5 SSW 24 32 13 17 1022.8 1022.3 0.0
27/09:00am 9.8 4.8 6.5 80 1.6 SSW 22 30 12 16 1022.8 1022.3 0.2
27/08:30am 9.2 4.7 6.3 82 1.4 SSW 19 28 10 15 1022.6 1022.1 0.2
27/08:00am 8.1 3.6 6.1 87 0.9 SSW 19 32 10 17 1022.3 1021.8 0.2
27/07:30am 7.1 2.9 5.6 90 0.7 SW 17 24 9 13 1021.8 1021.4 0.2
27/07:00am 6.5 1.8 5.1 91 0.6 SW 19 26 10 14 1021.3 1020.9 0.2
27/06:30am 6.3 1.9 4.8 90 0.7 SW 17 22 9 12 1021.0 1020.6 0.2
27/06:00am 6.7 2.0 5.2 90 0.7 SW 19 24 10 13 1020.7 1020.3 0.2
27/05:30am 7.0 2.7 5.2 88 0.8 SW 17 24 9 13 1020.4 1020.0 0.2
27/05:00am 7.3 3.4 5.3 87 0.9 SSW 15 22 8 12 1020.1 1019.6 0.2
27/04:30am 7.3 3.0 5.1 86 1.0 SSW 17 26 9 14 1019.9 1019.4 0.2
27/04:00am 7.9 3.3 5.4 84 1.1 SW 19 30 10 16 1019.6 1019.1 0.2
27/03:30am 7.7 2.8 5.2 84 1.1 SW 20 30 11 16 1019.4 1018.9 0.2
27/03:00am 7.8 3.1 5.3 84 1.1 WSW 19 26 10 14 1019.5 1019.0 0.2
27/02:30am 7.8 3.0 4.9 82 1.3 WSW 19 26 10 14 1019.7 1019.2 0.2
27/02:00am 7.7 4.0 4.5 80 1.4 WSW 13 19 7 10 1019.7 1019.2 0.2
27/01:30am 8.2 4.6 4.8 79 1.5 WSW 13 17 7 9 1019.6 1019.1 0.2
27/01:00am 8.3 5.7 4.3 76 1.8 SSW 7 13 4 7 1019.6 1019.1 0.2
27/12:30am 7.9 4.2 4.3 78 1.6 W 13 19 7 10 1019.6 1019.1 0.2
27/12:00am 8.2 5.6 4.0 75 1.8 WSW 7 13 4 7 1019.7 1019.2 0.2
 
Date/Time
EST
Temp
°C
App
Temp
°C
Dew
Point
Rel
Hum
%
Delta-T
°C
Wind Press
QNH
hPa
Press
MSL
hPa
Rain
since 9 am
mm
Dir
 
Spd
km/h
Gust
km/h
Spd
kts
Gust
kts
26/11:30pm 8.6 4.8 4.0 73 2.0 W 13 15 7 8 1019.7 1019.2 0.2
26/11:00pm 9.8 5.7 4.4 69 2.4 WSW 15 20 8 11 1019.6 1019.1 0.2
26/10:30pm 10.1 6.1 4.7 69 2.5 WSW 15 20 8 11 1019.8 1019.3 0.2
26/10:00pm 10.4 6.0 5.0 69 2.5 WSW 17 24 9 13 1019.7 1019.2 0.2
26/09:30pm 10.8 6.2 5.6 70 2.4 WSW 19 26 10 14 1019.7 1019.2 0.2
26/09:00pm 11.7 6.9 5.8 67 2.8 WSW 20 28 11 15 1019.5 1019.0 0.2
26/08:30pm 12.6 7.5 6.0 64 3.2 WSW 22 32 12 17 1019.4 1018.9 0.2
26/08:00pm 13.1 8.5 6.5 64 3.2 WSW 20 28 11 15 1019.1 1018.6 0.2
26/07:30pm 13.2 8.6 6.5 64 3.3 WSW 20 30 11 16 1018.9 1018.4 0.2
26/07:00pm 13.7 8.7 6.6 62 3.5 WSW 22 30 12 16 1018.4 1018.0 0.2
26/06:30pm 14.1 8.8 6.7 61 3.6 WSW 24 35 13 19 1018.0 1017.6 0.2
26/06:00pm 14.3 8.6 6.6 60 3.8 WSW 26 41 14 22 1017.5 1017.1 0.2
26/05:30pm 15.0 10.5 7.1 59 3.9 WSW 20 30 11 16 1017.0 1016.5 0.2
26/05:00pm 15.4 11.0 7.4 59 4.0 WSW 20 33 11 18 1016.9 1016.4 0.2
26/04:30pm 15.6 11.2 7.6 59 4.0 WSW 20 32 11 17 1016.6 1016.1 0.2
26/04:00pm 15.9 11.2 7.7 58 4.2 SW 22 28 12 15 1016.4 1015.9 0.2
26/03:30pm 16.3 11.3 8.0 58 4.2 WSW 24 33 13 18 1016.0 1015.5 0.2
26/03:00pm 16.7 10.9 7.9 56 4.5 SW 28 37 15 20 1015.7 1015.2 0.2
26/02:30pm 16.5 10.9 8.7 60 4.1 WSW 28 39 15 21 1015.3 1014.8 0.2
26/02:00pm 17.1 11.2 9.0 59 4.2 WSW 30 41 16 22 1015.0 1014.5 0.2
26/01:30pm 17.1 12.6 10.0 63 3.8 WSW 24 33 13 18 1015.1 1014.6 0.2
26/01:00pm 14.9 10.2 9.3 69 2.9 W 24 33 13 18 1015.1 1014.6 0.2
26/12:30pm 15.6 11.1 9.9 69 3.0 WSW 24 35 13 19 1015.3 1014.8 0.0
26/12:00pm 14.2 10.3 9.4 73 2.5 SW 20 30 11 16 1015.4 1014.9 0.0
26/11:30am 14.0 9.8 9.6 75 2.3 WSW 22 30 12 16 1015.5 1015.0 0.0
26/11:00am 13.3 9.7 9.7 79 1.9 WSW 19 28 10 15 1015.4 1014.9 0.0
26/10:30am 12.6 8.9 9.6 82 1.5 SW 19 28 10 15 1015.3 1014.8 0.0
26/10:00am 11.9 8.0 9.5 85 1.2 SW 20 28 11 15 1015.1 1014.6 0.0
26/09:30am 11.4 7.5 9.5 88 1.0 SW 20 26 11 14 1015.2 1014.7 0.0
26/09:00am 11.4 8.4 9.3 87 1.1 SW 15 22 8 12 1014.7 1014.3 0.8
26/08:30am 11.0 8.0 9.3 89 0.9 WSW 15 22 8 12 1014.5 1014.1 0.8
26/08:00am 10.9 7.9 9.2 89 0.9 SW 15 20 8 11 1014.1 1013.7 0.8
26/07:30am 10.6 7.3 9.4 92 0.6 SW 17 22 9 12 1013.4 1012.9 0.8
26/07:00am 10.2 6.5 9.4 95 0.4 SW 19 26 10 14 1013.1 1012.6 0.8
26/06:30am 10.1 6.4 9.5 96 0.3 SW 19 26 10 14 1012.8 1012.3 0.8
26/06:00am 9.9 6.6 9.4 97 0.3 WSW 17 24 9 13 1012.4 1011.9 0.8
26/05:30am 9.7 6.3 9.2 97 0.3 SW 17 26 9 14 1012.3 1011.8 0.8
26/05:00am 9.7 5.9 9.1 96 0.3 SW 19 24 10 13 1011.9 1011.4 0.8
26/04:30am 10.0 6.6 9.1 94 0.5 SW 17 28 9 15 1011.6 1011.1 0.8
26/04:00am 10.1 6.1 9.0 93 0.6 WSW 20 30 11 16 1011.5 1011.0 0.8
26/03:30am 10.1 6.3 8.9 92 0.6 WSW 19 26 10 14 1011.2 1010.7 0.8
26/03:00am 9.6 6.0 8.5 93 0.5 WSW 17 22 9 12 1011.1 1010.6 0.8
26/02:30am 9.5 6.3 8.3 92 0.6 WSW 15 20 8 11 1011.2 1010.7 0.8
26/02:00am 9.8 6.6 8.4 91 0.7 WSW 15 20 8 11 1010.9 1010.4 0.8
26/01:30am 10.0 6.0 8.3 89 0.8 WSW 19 26 10 14 1011.2 1010.7 0.8
26/01:00am 10.1 6.8 8.2 88 0.9 SW 15 20 8 11 1011.2 1010.7 0.8
26/12:30am 10.4 6.8 8.5 88 0.9 WSW 17 24 9 13 1011.1 1010.6 0.8
26/12:00am 10.5 7.7 8.6 88 0.9 WSW 13 19 7 10 1010.8 1010.3 0.8
 
Date/Time
EST
Temp
°C
App
Temp
°C
Dew
Point
Rel
Hum
%
Delta-T
°C
Wind Press
QNH
hPa
Press
MSL
hPa
Rain
since 9 am
mm
Dir
 
Spd
km/h
Gust
km/h
Spd
kts
Gust
kts
25/11:30pm 10.4 7.2 8.5 88 0.9 SW 15 22 8 12 1010.9 1010.4 0.8
25/11:00pm 10.3 6.7 8.4 88 0.9 WSW 17 20 9 11 1011.1 1010.6 0.8
25/10:30pm 10.3 6.7 8.2 87 1.0 WSW 17 20 9 11 1011.3 1010.8 0.8
25/10:00pm 10.3 7.0 8.2 87 1.0 W 15 19 8 10 1011.3 1010.8 0.8
25/09:30pm 10.4 6.7 8.0 85 1.2 WSW 17 24 9 13 1010.7 1010.2 0.8
25/09:00pm 10.6 7.3 8.0 84 1.3 SSW 15 22 8 12 1010.7 1010.2 0.8
25/08:30pm 10.7 7.8 8.3 85 1.2 SW 13 20 7 11 1010.5 1010.0 0.8
25/08:00pm 11.0 7.4 8.4 84 1.3 SW 17 24 9 13 1010.2 1009.7 0.8
25/07:30pm 11.3 7.5 8.9 85 1.2 WSW 19 26 10 14 1010.0 1009.5 0.8
25/07:00pm 11.9 7.8 8.7 81 1.6 W 20 30 11 16 1009.9 1009.4 0.8
25/06:30pm 12.2 9.5 9.0 81 1.6 WSW 13 15 7 8 1009.2 1008.7 0.8
25/06:00pm 12.6 10.4 9.4 81 1.6 SW 11 17 6 9 1008.7 1008.2 0.8
25/05:30pm 13.1 10.2 9.5 79 1.9 SW 15 20 8 11 1008.2 1007.7 0.8
25/05:00pm 13.9 10.1 8.9 72 2.6 WSW 19 30 10 16 1007.8 1007.2 0.8
25/04:30pm 15.0 10.5 8.7 66 3.2 SW 22 30 12 16 1007.5 1006.9 0.8
25/04:00pm 15.7 10.9 8.7 63 3.6 WSW 24 32 13 17 1007.2 1006.7 0.8
25/03:30pm 17.0 12.7 10.8 67 3.4 W 24 32 13 17 1006.6 1006.1 0.8
25/03:00pm 16.4 12.9 10.9 70 3.0 WSW 20 30 11 16 1006.5 1006.0 0.8
25/02:30pm 16.9 12.5 10.5 66 3.5 WSW 24 33 13 18 1006.1 1005.6 0.8
25/02:00pm 17.6 17.1 10.7 64 3.8 E 4 7 2 4 1006.1 1005.6 0.8
25/01:30pm 17.4 16.9 11.9 70 3.1 S 6 11 3 6 1006.4 1005.9 0.8
25/01:00pm 15.8 14.6 10.3 70 2.9 N 7 13 4 7 1006.7 1006.2 0.4
25/12:30pm 16.4 13.0 10.5 68 3.2 NE 19 24 10 13 1007.2 1006.7 0.4

Other Formats:

Comma delimited format used in spreadsheet applications
http://www.bom.gov.au/fwo/IDN60801/IDN60801.95722.axf

JavaScript Object Notation format (JSON) in row-major order
http://www.bom.gov.au/fwo/IDN60801/IDN60801.95722.json